createdAt,value
2023-05-15T00:00:26.854Z,98.18
2023-05-15T00:02:39.113Z,98.38
2023-05-15T00:04:52.074Z,98.90
2023-05-15T00:07:04.086Z,98.79
2023-05-15T00:09:17.086Z,99.51
2023-05-15T00:11:28.225Z,99.62
2023-05-15T00:13:40.305Z,99.21
2023-05-15T00:15:52.526Z,99.62
2023-05-15T00:18:05.440Z,99.82
2023-05-15T00:20:16.601Z,99.99
2023-05-15T00:22:29.702Z,99.99
2023-05-15T00:24:40.838Z,99.93
2023-05-15T00:26:52.963Z,99.82
2023-05-15T00:29:06.937Z,99.82
2023-05-15T00:31:19.099Z,99.93
2023-05-15T00:33:31.149Z,99.82
2023-05-15T00:35:45.102Z,99.72
2023-05-15T00:37:56.341Z,99.77
2023-05-15T00:40:08.369Z,99.99
2023-05-15T00:42:21.435Z,99.88
2023-05-15T00:44:32.565Z,99.88
2023-05-15T00:46:44.651Z,99.98
2023-05-15T00:48:59.220Z,99.98
2023-05-15T00:51:10.678Z,99.99
2023-05-15T00:53:22.820Z,99.99
2023-05-15T00:55:34.911Z,99.99
2023-05-15T00:57:47.027Z,99.99
2023-05-15T01:00:01.174Z,99.99
2023-05-15T01:02:12.715Z,99.99
2023-05-15T01:04:25.765Z,99.99
2023-05-15T01:06:37.883Z,99.99
2023-05-15T01:08:50.003Z,99.99
2023-05-15T01:11:02.082Z,99.99
2023-05-15T01:13:14.127Z,99.99
2023-05-15T01:15:26.353Z,99.99
2023-05-15T01:17:38.337Z,99.82
2023-05-15T01:19:50.538Z,99.62
2023-05-15T01:22:02.481Z,99.99
2023-05-15T01:24:14.532Z,99.99
2023-05-15T01:26:26.610Z,99.87
2023-05-15T01:28:38.704Z,99.87
2023-05-15T01:30:51.309Z,99.87
2023-05-15T01:33:04.424Z,99.91
2023-05-15T01:35:16.457Z,99.60
2023-05-15T01:37:28.523Z,99.91
2023-05-15T01:39:41.621Z,99.99
2023-05-15T01:41:53.668Z,99.99
2023-05-15T01:44:05.839Z,99.99
2023-05-15T01:46:17.899Z,99.99
2023-05-15T01:48:31.815Z,99.99
2023-05-15T01:50:42.998Z,99.99
2023-05-15T01:52:57.481Z,99.99
2023-05-15T01:55:09.604Z,99.99
2023-05-15T01:57:20.756Z,99.99
2023-05-15T01:59:32.848Z,99.99
2023-05-15T02:01:45.002Z,99.99
2023-05-15T02:03:57.076Z,99.99
2023-05-15T02:06:09.133Z,99.99
2023-05-15T02:08:21.185Z,99.99
2023-05-15T02:10:33.281Z,99.99
2023-05-15T02:12:47.253Z,99.99
2023-05-15T02:14:59.309Z,99.99
2023-05-15T02:17:10.550Z,99.99
2023-05-15T02:19:22.592Z,99.99
2023-05-15T02:21:34.674Z,99.99
2023-05-15T02:23:46.749Z,99.99
2023-05-15T02:25:59.850Z,99.99
2023-05-15T02:28:11.960Z,99.99
2023-05-15T02:30:24.898Z,99.99
2023-05-15T02:32:36.113Z,99.99
2023-05-15T02:34:48.172Z,99.99
2023-05-15T02:37:00.285Z,99.99
2023-05-15T02:39:12.770Z,99.99
2023-05-15T02:41:24.436Z,99.99
2023-05-15T02:43:37.447Z,99.99
2023-05-15T02:45:48.672Z,99.99
2023-05-15T02:48:01.604Z,99.99
2023-05-15T02:50:13.280Z,99.99
2023-05-15T02:52:24.850Z,99.99
2023-05-15T02:54:36.927Z,99.99
2023-05-15T02:56:49.877Z,99.99
2023-05-15T02:59:02.956Z,99.99
2023-05-15T03:01:13.235Z,99.99
2023-05-15T03:03:25.790Z,99.99
2023-05-15T03:05:37.872Z,99.99
2023-05-15T03:07:49.407Z,99.99
2023-05-15T03:10:01.477Z,99.99
2023-05-15T03:12:13.559Z,99.99
2023-05-15T03:14:27.570Z,99.99
2023-05-15T03:16:39.318Z,99.99
2023-05-15T03:18:51.703Z,99.99
2023-05-15T03:21:03.859Z,99.99
2023-05-15T03:23:15.962Z,99.99
2023-05-15T03:25:28.218Z,99.99
2023-05-15T03:27:40.109Z,99.99
2023-05-15T03:29:53.577Z,99.99
2023-05-15T03:32:04.246Z,99.99
2023-05-15T03:34:16.361Z,99.99
2023-05-15T03:36:28.408Z,99.99
2023-05-15T03:38:40.494Z,99.99
2023-05-15T03:40:54.065Z,99.99
2023-05-15T03:43:07.046Z,99.99
2023-05-15T03:45:18.264Z,99.99
2023-05-15T03:47:30.393Z,99.99
2023-05-15T03:49:42.383Z,99.99
2023-05-15T03:51:54.464Z,99.99
2023-05-15T03:54:06.554Z,99.99
2023-05-15T03:56:19.562Z,99.99
2023-05-15T03:58:31.019Z,99.99
2023-05-15T04:00:44.041Z,99.99
2023-05-15T04:02:55.926Z,99.99
2023-05-15T04:05:07.335Z,99.99
2023-05-15T04:07:19.409Z,99.99
2023-05-15T04:09:32.019Z,99.99
2023-05-15T04:11:44.456Z,99.99
2023-05-15T04:13:55.706Z,99.99
2023-05-15T04:16:07.879Z,99.99
2023-05-15T04:18:19.893Z,99.99
2023-05-15T04:20:32.001Z,99.99
2023-05-15T04:22:44.055Z,99.99
2023-05-15T04:24:56.144Z,99.99
2023-05-15T04:27:08.314Z,99.99
2023-05-15T04:29:20.353Z,99.03
2023-05-15T04:31:33.404Z,97.75
2023-05-15T04:33:46.803Z,97.09
2023-05-15T04:35:57.561Z,95.92
2023-05-15T04:38:10.586Z,95.53
2023-05-15T04:40:21.751Z,94.92
2023-05-15T04:42:33.786Z,93.74
2023-05-15T04:44:45.902Z,94.21
2023-05-15T04:46:59.458Z,93.45
2023-05-15T04:49:11.545Z,93.35
2023-05-15T04:51:25.174Z,92.43
2023-05-15T04:53:37.230Z,92.49
2023-05-15T04:55:51.195Z,92.90
2023-05-15T04:58:02.383Z,92.69
2023-05-15T05:00:15.982Z,92.35
2023-05-15T05:02:32.130Z,92.35
2023-05-15T05:04:45.673Z,91.74
2023-05-15T05:07:03.793Z,92.14
2023-05-15T05:09:19.524Z,92.20
2023-05-15T05:11:38.401Z,92.20
2023-05-15T05:13:55.661Z,92.05
2023-05-15T05:16:13.748Z,91.24
2023-05-15T05:18:27.360Z,90.79
2023-05-15T05:20:45.433Z,90.03
2023-05-15T05:22:57.484Z,90.14
2023-05-15T05:25:09.622Z,90.30
2023-05-15T05:27:22.568Z,89.24
2023-05-15T05:29:33.811Z,88.83
2023-05-15T05:31:46.556Z,88.18
2023-05-15T05:33:58.842Z,87.32
2023-05-15T05:36:10.960Z,86.88
2023-05-15T05:38:22.993Z,86.80
2023-05-15T05:40:35.079Z,84.32
2023-05-15T05:42:46.277Z,80.73
2023-05-15T05:44:59.262Z,82.31
2023-05-15T05:47:11.459Z,78.83
2023-05-15T05:49:22.544Z,78.39
2023-05-15T05:51:35.511Z,77.84
2023-05-15T05:53:50.236Z,75.79
2023-05-15T05:56:02.276Z,75.85
2023-05-15T05:58:24.971Z,75.78
2023-05-15T06:00:27.470Z,74.87
2023-05-15T06:02:39.651Z,70.73
2023-05-15T06:04:52.590Z,73.58
2023-05-15T06:07:03.709Z,72.34
2023-05-15T06:09:16.836Z,69.82
2023-05-15T06:11:28.871Z,70.06
2023-05-15T06:13:42.343Z,68.37
2023-05-15T06:15:53.924Z,67.63
2023-05-15T06:18:05.195Z,69.82
2023-05-15T06:20:17.233Z,69.38
2023-05-15T06:22:30.175Z,69.56
2023-05-15T06:24:41.360Z,67.81
2023-05-15T06:26:54.013Z,64.56
2023-05-15T06:29:05.551Z,63.76
2023-05-15T06:31:18.712Z,65.09
2023-05-15T06:33:29.710Z,64.86
2023-05-15T06:35:41.795Z,66.30
2023-05-15T06:37:56.501Z,66.87
2023-05-15T06:40:05.948Z,65.80
2023-05-15T06:42:18.070Z,67.88
2023-05-15T06:44:30.133Z,65.06
2023-05-15T06:46:42.294Z,66.77
2023-05-15T06:48:55.192Z,65.23
2023-05-15T06:51:06.392Z,64.03
2023-05-15T06:53:18.994Z,62.99
2023-05-15T06:55:32.027Z,63.70
2023-05-15T06:57:45.077Z,64.64
2023-05-15T06:59:59.164Z,62.00
2023-05-15T07:02:09.856Z,59.86
2023-05-15T07:04:21.947Z,60.64
2023-05-15T07:06:33.965Z,60.41
2023-05-15T07:08:46.103Z,57.10
2023-05-15T07:10:58.143Z,57.53
2023-05-15T07:13:11.172Z,58.61
2023-05-15T07:15:23.295Z,58.28
2023-05-15T07:17:34.527Z,56.37
2023-05-15T07:19:47.470Z,55.05
2023-05-15T07:22:02.492Z,53.14
2023-05-15T07:24:12.623Z,54.44
2023-05-15T07:26:34.287Z,54.94
2023-05-15T07:28:36.766Z,54.72
2023-05-15T07:30:50.352Z,53.77
2023-05-15T07:33:03.990Z,50.46
2023-05-15T07:35:17.903Z,53.82
2023-05-15T07:37:30.651Z,53.62
2023-05-15T07:39:42.733Z,53.59
2023-05-15T07:41:54.813Z,52.09
2023-05-15T07:44:06.830Z,51.57
2023-05-15T07:46:19.926Z,53.89
2023-05-15T07:48:33.904Z,55.62
2023-05-15T07:50:44.082Z,55.62
2023-05-15T07:52:59.051Z,55.99
2023-05-15T07:55:09.256Z,53.39
2023-05-15T07:57:22.855Z,53.69
2023-05-15T07:59:35.003Z,54.82
2023-05-15T08:01:46.989Z,57.19
2023-05-15T08:03:59.226Z,56.59
2023-05-15T08:06:12.114Z,53.19
2023-05-15T08:08:25.083Z,55.69
2023-05-15T08:10:36.316Z,54.77
2023-05-15T08:12:49.342Z,54.32
2023-05-15T08:15:01.432Z,53.22
2023-05-15T08:17:13.511Z,52.19
2023-05-15T08:19:25.637Z,53.17
2023-05-15T08:21:39.164Z,49.90
2023-05-15T08:23:53.673Z,52.76
2023-05-15T08:26:04.833Z,53.94
2023-05-15T08:28:16.885Z,50.15
2023-05-15T08:30:28.978Z,48.46
2023-05-15T08:32:41.085Z,50.82
2023-05-15T08:34:54.097Z,49.80
2023-05-15T08:37:06.712Z,48.49
2023-05-15T08:39:19.309Z,48.74
2023-05-15T08:41:40.682Z,47.13
2023-05-15T08:43:45.393Z,46.70
2023-05-15T08:45:56.533Z,46.33
2023-05-15T08:48:08.692Z,46.97
2023-05-15T08:50:21.210Z,47.59
2023-05-15T08:52:33.238Z,47.61
2023-05-15T08:54:47.933Z,48.25
2023-05-15T08:56:57.396Z,49.68
2023-05-15T08:59:09.502Z,49.50
2023-05-15T09:01:22.663Z,50.60
2023-05-15T09:03:34.746Z,49.72
2023-05-15T09:05:47.727Z,48.25
2023-05-15T09:07:59.792Z,51.75
2023-05-15T09:10:13.448Z,51.42
2023-05-15T09:12:26.728Z,52.02
2023-05-15T09:14:38.885Z,51.02
2023-05-15T09:16:51.131Z,49.22
2023-05-15T09:19:03.957Z,51.45
2023-05-15T09:21:15.981Z,50.54
2023-05-15T09:23:27.165Z,51.47
2023-05-15T09:25:39.561Z,52.25
2023-05-15T09:27:51.647Z,51.82
2023-05-15T09:30:03.721Z,51.25
2023-05-15T09:32:15.926Z,51.22
2023-05-15T09:34:28.863Z,51.67
2023-05-15T09:36:40.940Z,53.44
2023-05-15T09:38:53.077Z,54.74
2023-05-15T09:41:06.070Z,53.07
2023-05-15T09:43:17.195Z,55.15
2023-05-15T09:45:29.289Z,54.62
2023-05-15T09:47:42.325Z,53.69
2023-05-15T09:49:54.447Z,53.94
2023-05-15T09:52:07.490Z,50.35
2023-05-15T09:54:20.453Z,50.65
2023-05-15T09:56:32.535Z,51.92
2023-05-15T09:58:43.717Z,54.57
2023-05-15T10:00:57.333Z,52.92
2023-05-15T10:03:09.416Z,52.76
2023-05-15T10:05:35.311Z,50.74
2023-05-15T10:07:33.568Z,51.45
2023-05-15T10:09:45.647Z,50.82
2023-05-15T10:11:59.261Z,50.13
2023-05-15T10:14:11.322Z,49.55
2023-05-15T10:16:23.434Z,48.46
2023-05-15T10:18:36.468Z,48.21
2023-05-15T10:20:48.540Z,49.01
2023-05-15T10:23:00.677Z,48.07
2023-05-15T10:25:12.712Z,50.27
2023-05-15T10:27:24.819Z,49.08
2023-05-15T10:29:36.876Z,49.01
2023-05-15T10:31:49.251Z,50.08
2023-05-15T10:34:01.057Z,50.27
2023-05-15T10:36:17.575Z,50.23
2023-05-15T10:38:29.740Z,51.62
2023-05-15T10:40:41.849Z,49.65
2023-05-15T10:42:53.930Z,53.24
2023-05-15T10:45:06.022Z,50.25
2023-05-15T10:47:19.059Z,51.67
2023-05-15T10:49:30.116Z,51.22
2023-05-15T10:51:42.217Z,52.29
2023-05-15T10:53:55.292Z,47.96
2023-05-15T10:56:07.447Z,50.10
2023-05-15T10:58:21.606Z,46.59
2023-05-15T11:00:32.816Z,44.56
2023-05-15T11:02:45.922Z,45.40
2023-05-15T11:04:57.943Z,44.45
2023-05-15T11:07:10.065Z,46.80
2023-05-15T11:09:22.113Z,47.40
2023-05-15T11:11:34.208Z,47.20
2023-05-15T11:13:46.289Z,45.06
2023-05-15T11:15:58.366Z,44.26
2023-05-15T11:18:10.591Z,48.74
2023-05-15T11:20:22.652Z,49.01
2023-05-15T11:22:34.578Z,46.30
2023-05-15T11:24:46.656Z,49.28
2023-05-15T11:27:00.265Z,48.79
2023-05-15T11:29:13.247Z,46.92
2023-05-15T11:31:24.455Z,44.49
2023-05-15T11:33:37.470Z,44.62
2023-05-15T11:35:50.619Z,44.84
2023-05-15T11:38:03.534Z,44.93
2023-05-15T11:40:14.764Z,46.13
2023-05-15T11:42:26.780Z,45.36
2023-05-15T11:44:38.883Z,43.07
2023-05-15T11:46:50.997Z,47.59
2023-05-15T11:49:03.922Z,46.01
2023-05-15T11:51:16.017Z,46.42
2023-05-15T11:53:27.194Z,47.41
2023-05-15T11:55:39.289Z,48.05
2023-05-15T11:57:52.250Z,49.43
2023-05-15T11:58:51.353Z,47.03
2023-05-15T12:01:03.428Z,46.44
2023-05-15T12:03:15.591Z,45.76
2023-05-15T12:05:27.597Z,47.83
2023-05-15T12:07:39.700Z,48.03
2023-05-15T12:09:52.744Z,47.14
2023-05-15T12:12:04.838Z,46.26
2023-05-15T12:14:18.210Z,46.76
2023-05-15T12:16:30.303Z,50.32
2023-05-15T12:18:42.409Z,47.44
2023-05-15T12:20:54.439Z,46.91
2023-05-15T12:23:06.521Z,46.12
2023-05-15T12:25:18.594Z,46.69
2023-05-15T12:27:30.684Z,42.79
2023-05-15T12:29:43.794Z,44.60
2023-05-15T12:31:55.913Z,42.97
2023-05-15T12:34:07.982Z,42.93
2023-05-15T12:36:20.016Z,43.20
2023-05-15T12:38:33.083Z,42.99
2023-05-15T12:40:45.195Z,41.28
2023-05-15T12:42:57.250Z,40.36
2023-05-15T12:45:09.313Z,40.36
2023-05-15T12:47:21.389Z,39.77
2023-05-15T12:49:34.446Z,42.47
2023-05-15T12:51:46.577Z,41.79
2023-05-15T12:53:59.602Z,42.69
2023-05-15T12:56:11.705Z,42.01
2023-05-15T12:58:24.769Z,42.41
2023-05-15T13:00:36.851Z,42.09
2023-05-15T13:02:49.975Z,41.17
2023-05-15T13:05:01.016Z,40.88
2023-05-15T13:07:13.931Z,40.11
2023-05-15T13:09:25.183Z,41.61
2023-05-15T13:11:39.235Z,43.15
2023-05-15T13:13:52.622Z,43.30
2023-05-15T13:16:04.697Z,41.89
2023-05-15T13:18:16.768Z,39.87
2023-05-15T13:20:29.738Z,40.19
2023-05-15T13:22:40.929Z,40.70
2023-05-15T13:24:53.040Z,40.33
2023-05-15T13:27:05.983Z,41.34
2023-05-15T13:29:18.350Z,41.06
2023-05-15T13:31:30.274Z,40.70
2023-05-15T13:33:41.385Z,42.01
2023-05-15T13:35:54.356Z,40.64
2023-05-15T13:38:07.566Z,41.55
2023-05-15T13:40:18.600Z,41.97
2023-05-15T13:42:30.651Z,43.95
2023-05-15T13:44:42.752Z,43.13
2023-05-15T13:46:55.338Z,42.81
2023-05-15T13:49:07.675Z,40.74
2023-05-15T13:51:18.535Z,41.55
2023-05-15T13:53:30.618Z,44.53
2023-05-15T13:55:42.748Z,42.51
2023-05-15T13:57:54.767Z,44.01
2023-05-15T14:00:06.853Z,44.01
2023-05-15T14:02:18.949Z,41.89
2023-05-15T14:04:31.005Z,42.33
2023-05-15T14:06:43.100Z,51.82
2023-05-15T14:08:55.186Z,54.10
2023-05-15T14:11:07.243Z,56.26
2023-05-15T14:13:20.219Z,57.91
2023-05-15T14:15:31.402Z,58.84
2023-05-15T14:17:43.601Z,59.25
2023-05-15T14:19:55.628Z,59.27
2023-05-15T14:22:07.646Z,60.78
2023-05-15T14:24:19.773Z,60.65
2023-05-15T14:26:33.720Z,60.38
2023-05-15T14:28:44.975Z,60.25
2023-05-15T14:30:57.989Z,59.16
2023-05-15T14:33:09.256Z,58.20
2023-05-15T14:35:21.182Z,57.60
2023-05-15T14:37:34.175Z,57.20
2023-05-15T14:39:45.348Z,57.98
2023-05-15T14:41:57.410Z,58.03
2023-05-15T14:44:11.346Z,58.33
2023-05-15T14:46:24.549Z,58.16
2023-05-15T14:48:36.594Z,58.42
2023-05-15T14:50:48.671Z,59.52
2023-05-15T14:53:00.778Z,59.45
2023-05-15T14:55:13.839Z,59.55
2023-05-15T14:57:26.422Z,60.05
2023-05-15T14:59:37.996Z,59.67
2023-05-15T15:01:50.996Z,60.41
2023-05-15T15:04:02.265Z,61.01
2023-05-15T15:06:14.253Z,60.68
2023-05-15T15:08:27.213Z,60.75
2023-05-15T15:10:39.328Z,60.72
2023-05-15T15:12:50.532Z,59.14
2023-05-15T15:15:02.638Z,61.14
2023-05-15T15:17:14.747Z,62.88
2023-05-15T15:19:26.860Z,63.35
2023-05-15T15:21:38.904Z,62.24
2023-05-15T15:23:51.884Z,61.98
2023-05-15T15:26:04.046Z,61.30
2023-05-15T15:28:15.186Z,62.41
2023-05-15T15:30:27.467Z,62.74
2023-05-15T15:32:39.378Z,63.04
2023-05-15T15:34:51.402Z,62.84
2023-05-15T15:37:04.496Z,63.17
2023-05-15T15:39:17.459Z,64.28
2023-05-15T15:41:28.667Z,64.58
2023-05-15T15:43:43.193Z,64.78
2023-05-15T15:45:54.394Z,65.49
2023-05-15T15:48:06.587Z,65.29
2023-05-15T15:50:18.564Z,66.39
2023-05-15T15:52:30.636Z,66.39
2023-05-15T15:54:42.737Z,64.78
2023-05-15T15:56:54.784Z,65.69
2023-05-15T15:59:08.428Z,65.69
2023-05-15T16:01:20.456Z,66.60
2023-05-15T16:03:33.687Z,66.09
2023-05-15T16:05:46.490Z,66.83
2023-05-15T16:07:57.672Z,70.26
2023-05-15T16:10:12.834Z,75.20
2023-05-15T16:12:21.822Z,79.87
2023-05-15T16:14:34.921Z,84.99
2023-05-15T16:16:47.041Z,84.87
2023-05-15T16:19:43.899Z,87.44
2023-05-15T16:21:57.851Z,90.52
2023-05-15T16:24:09.060Z,91.57
2023-05-15T16:26:21.513Z,91.00
2023-05-15T16:28:33.722Z,92.67
2023-05-15T16:30:49.510Z,94.34
2023-05-15T16:32:58.406Z,95.65
2023-05-15T16:35:10.460Z,96.15
2023-05-15T16:37:23.539Z,96.26
2023-05-15T16:39:35.633Z,95.75
2023-05-15T16:41:47.704Z,95.70
2023-05-15T16:43:59.806Z,97.22
2023-05-15T16:46:11.891Z,95.29
2023-05-15T16:48:26.386Z,96.56
2023-05-15T16:50:37.700Z,95.04
2023-05-15T16:52:49.734Z,95.09
2023-05-15T16:55:02.820Z,94.89
2023-05-15T16:57:15.012Z,94.58
2023-05-15T16:59:27.014Z,94.32
2023-05-15T17:01:40.062Z,96.25
2023-05-15T17:03:52.201Z,95.94
2023-05-15T17:06:04.208Z,97.62
2023-05-15T17:08:16.303Z,96.91
2023-05-15T17:10:28.484Z,96.86
2023-05-15T17:12:41.504Z,96.45
2023-05-15T17:14:55.566Z,97.16
2023-05-15T17:17:07.654Z,98.48
2023-05-15T17:19:19.768Z,97.16
2023-05-15T17:21:32.758Z,98.07
2023-05-15T17:23:44.431Z,98.99
2023-05-15T17:25:56.017Z,98.18
2023-05-15T17:28:08.103Z,98.48
2023-05-15T17:30:20.850Z,98.79
2023-05-15T17:32:32.329Z,98.18
2023-05-15T17:34:45.882Z,97.77
2023-05-15T17:43:00.571Z,97.47
2023-05-15T18:26:38.609Z,98.52
2023-05-15T18:30:13.563Z,98.12
2023-05-15T18:31:56.204Z,98.68
2023-05-15T18:59:46.143Z,99.99
2023-05-15T19:31:30.761Z,98.41
2023-05-15T19:32:10.926Z,98.61
2023-05-15T19:34:47.046Z,98.41
2023-05-15T19:49:35.599Z,99.02
2023-05-15T20:12:19.419Z,96.53
2023-05-15T20:14:00.541Z,96.02
2023-05-15T20:16:13.572Z,96.02
2023-05-15T20:18:24.692Z,95.51
2023-05-15T20:20:38.254Z,95.10
2023-05-15T20:22:50.356Z,95.62
2023-05-15T20:25:05.932Z,95.82
2023-05-15T20:27:20.016Z,96.33
2023-05-15T20:29:35.117Z,95.62
2023-05-15T20:31:48.243Z,95.21
2023-05-15T20:34:01.760Z,95.41
2023-05-15T20:36:17.386Z,94.70
2023-05-15T20:38:36.323Z,95.10
2023-05-15T20:40:48.522Z,94.09
2023-05-15T20:43:00.590Z,94.40
2023-05-15T20:45:16.169Z,94.70
2023-05-15T20:47:28.323Z,93.89
2023-05-15T20:49:41.866Z,93.59
2023-05-15T20:51:53.962Z,93.18
2023-05-15T20:54:08.547Z,93.79
2023-05-15T20:56:24.133Z,93.83
2023-05-15T20:58:36.239Z,94.34
2023-05-15T21:00:48.312Z,94.89
2023-05-15T21:03:01.411Z,95.30
2023-05-15T21:05:14.937Z,95.40
2023-05-15T21:07:27.916Z,95.81
2023-05-15T21:09:39.149Z,95.50
2023-05-15T21:11:52.069Z,95.91
2023-05-15T21:14:03.259Z,95.81
2023-05-15T21:16:16.237Z,95.00
2023-05-15T21:18:27.424Z,94.89
2023-05-15T21:20:39.525Z,95.30
2023-05-15T21:22:52.498Z,95.09
2023-05-15T21:25:04.574Z,95.70
2023-05-15T21:27:15.775Z,95.91
2023-05-15T21:29:27.858Z,95.91
2023-05-15T21:31:40.138Z,95.61
2023-05-15T21:33:52.006Z,96.06
2023-05-15T21:36:05.627Z,96.36
2023-05-15T21:38:19.173Z,96.67
2023-05-15T21:40:35.281Z,97.89
2023-05-15T21:42:47.751Z,98.70
2023-05-15T21:45:01.379Z,99.11
2023-05-15T21:47:12.537Z,98.60
2023-05-15T21:49:26.118Z,98.09
2023-05-15T21:51:39.075Z,97.64
2023-05-15T21:53:50.307Z,97.84
2023-05-15T21:56:02.361Z,97.44
2023-05-15T21:58:15.950Z,97.53
2023-05-15T22:00:29.564Z,97.44
2023-05-15T22:02:44.101Z,97.74
2023-05-15T22:04:55.648Z,97.94
2023-05-15T22:07:08.797Z,97.84
2023-05-15T22:09:20.910Z,97.94
2023-05-15T22:11:32.934Z,97.94
2023-05-15T22:13:46.554Z,98.14
2023-05-15T22:15:59.575Z,97.64
2023-05-15T22:18:10.716Z,97.84
2023-05-15T22:20:24.913Z,97.84
2023-05-15T22:22:36.075Z,97.84
2023-05-15T22:24:47.275Z,98.25
2023-05-15T22:27:00.319Z,98.45
2023-05-15T22:29:12.926Z,98.25
2023-05-15T22:31:25.946Z,98.05
2023-05-15T22:33:37.679Z,97.99
2023-05-15T22:35:49.216Z,97.99
2023-05-15T22:38:02.852Z,97.78
2023-05-15T22:40:18.280Z,97.99
2023-05-15T22:42:28.476Z,97.07
2023-05-15T22:44:42.090Z,97.28
2023-05-15T22:46:54.163Z,97.28
2023-05-15T22:49:06.278Z,96.87
2023-05-15T22:51:20.249Z,96.56
2023-05-15T22:53:31.331Z,95.34
2023-05-15T22:55:44.017Z,94.73
2023-05-15T22:57:57.635Z,94.63
2023-05-15T23:00:09.980Z,94.93
2023-05-15T23:02:23.330Z,95.04
2023-05-15T23:04:35.376Z,94.93
2023-05-15T23:06:48.357Z,95.39
2023-05-15T23:09:01.070Z,95.18
2023-05-15T23:11:17.062Z,95.29
2023-05-15T23:13:31.151Z,95.29
2023-05-15T23:15:42.325Z,95.39
2023-05-15T23:17:54.467Z,95.69
2023-05-15T23:20:08.016Z,95.49
2023-05-15T23:22:23.613Z,95.69
2023-05-15T23:24:38.598Z,96.00
2023-05-15T23:26:49.764Z,95.90
2023-05-15T23:29:02.838Z,95.90
2023-05-15T23:31:14.938Z,95.90
2023-05-15T23:33:27.030Z,96.00
2023-05-15T23:35:39.084Z,96.10
2023-05-15T23:37:51.153Z,96.30
2023-05-15T23:40:06.707Z,96.71
2023-05-15T23:42:16.835Z,96.71
2023-05-15T23:44:32.423Z,96.51
2023-05-15T23:46:45.434Z,96.71
2023-05-15T23:48:56.582Z,96.81
2023-05-15T23:51:09.621Z,97.02
2023-05-15T23:53:22.292Z,97.22
2023-05-15T23:55:33.851Z,97.53
2023-05-15T23:57:45.911Z,97.83
